sensor_id;sensor_type;location;lat;lon;timestamp;temperature;humidity
19665;DHT22;9980;51.020;7.772;2023-11-21T00:00:16;11.00;99.90
19665;DHT22;9980;51.020;7.772;2023-11-21T00:02:44;11.00;99.90
19665;DHT22;9980;51.020;7.772;2023-11-21T00:05:13;11.00;99.90
19665;DHT22;9980;51.020;7.772;2023-11-21T00:07:41;11.00;99.90
19665;DHT22;9980;51.020;7.772;2023-11-21T00:10:09;11.00;99.90
19665;DHT22;9980;51.020;7.772;2023-11-21T00:12:37;11.00;99.90
19665;DHT22;9980;51.020;7.772;2023-11-21T00:15:05;11.00;99.90
19665;DHT22;9980;51.020;7.772;2023-11-21T00:17:32;11.00;99.90
19665;DHT22;9980;51.020;7.772;2023-11-21T00:19:59;11.00;99.90
19665;DHT22;9980;51.020;7.772;2023-11-21T00:22:26;11.00;99.90
19665;DHT22;9980;51.020;7.772;2023-11-21T00:24:53;11.00;99.90
19665;DHT22;9980;51.020;7.772;2023-11-21T00:27:20;11.00;99.90
19665;DHT22;9980;51.020;7.772;2023-11-21T00:29:47;11.00;99.90
19665;DHT22;9980;51.020;7.772;2023-11-21T00:32:14;11.00;99.90
19665;DHT22;9980;51.020;7.772;2023-11-21T00:34:41;11.00;99.90
19665;DHT22;9980;51.020;7.772;2023-11-21T00:37:09;11.00;99.90
19665;DHT22;9980;51.020;7.772;2023-11-21T00:39:35;11.00;99.90
19665;DHT22;9980;51.020;7.772;2023-11-21T00:42:02;11.00;99.90
19665;DHT22;9980;51.020;7.772;2023-11-21T00:44:31;11.00;99.90
19665;DHT22;9980;51.020;7.772;2023-11-21T00:46:58;11.00;99.90
19665;DHT22;9980;51.020;7.772;2023-11-21T00:49:25;11.00;99.90
19665;DHT22;9980;51.020;7.772;2023-11-21T00:51:52;11.00;99.90
19665;DHT22;9980;51.020;7.772;2023-11-21T00:54:19;11.00;99.90
19665;DHT22;9980;51.020;7.772;2023-11-21T00:56:46;11.00;99.90
19665;DHT22;9980;51.020;7.772;2023-11-21T00:59:14;11.00;99.90
19665;DHT22;9980;51.020;7.772;2023-11-21T01:01:41;11.00;99.90
19665;DHT22;9980;51.020;7.772;2023-11-21T01:04:08;11.00;99.90
19665;DHT22;9980;51.020;7.772;2023-11-21T01:06:35;11.00;99.90
19665;DHT22;9980;51.020;7.772;2023-11-21T01:09:02;11.00;99.90
19665;DHT22;9980;51.020;7.772;2023-11-21T01:11:35;11.00;99.90
19665;DHT22;9980;51.020;7.772;2023-11-21T01:14:04;11.00;99.90
19665;DHT22;9980;51.020;7.772;2023-11-21T01:16:31;11.00;99.90
19665;DHT22;9980;51.020;7.772;2023-11-21T01:18:59;11.00;99.90
19665;DHT22;9980;51.020;7.772;2023-11-21T01:21:26;11.00;99.90
19665;DHT22;9980;51.020;7.772;2023-11-21T01:23:54;11.00;99.90
19665;DHT22;9980;51.020;7.772;2023-11-21T01:26:22;11.00;99.90
19665;DHT22;9980;51.020;7.772;2023-11-21T01:28:48;11.00;99.90
19665;DHT22;9980;51.020;7.772;2023-11-21T01:31:16;11.00;99.90
19665;DHT22;9980;51.020;7.772;2023-11-21T01:33:43;11.00;99.90
19665;DHT22;9980;51.020;7.772;2023-11-21T01:36:10;11.00;99.90
19665;DHT22;9980;51.020;7.772;2023-11-21T01:38:37;11.00;99.90
19665;DHT22;9980;51.020;7.772;2023-11-21T01:41:05;11.00;99.90
19665;DHT22;9980;51.020;7.772;2023-11-21T01:43:33;11.00;99.90
19665;DHT22;9980;51.020;7.772;2023-11-21T01:46:00;11.00;99.90
19665;DHT22;9980;51.020;7.772;2023-11-21T01:48:27;11.00;99.90
19665;DHT22;9980;51.020;7.772;2023-11-21T01:50:55;10.90;99.90
19665;DHT22;9980;51.020;7.772;2023-11-21T01:53:24;10.90;99.90
19665;DHT22;9980;51.020;7.772;2023-11-21T01:55:53;11.00;99.90
19665;DHT22;9980;51.020;7.772;2023-11-21T01:58:25;10.90;99.90
19665;DHT22;9980;51.020;7.772;2023-11-21T02:00:53;10.90;99.90
19665;DHT22;9980;51.020;7.772;2023-11-21T02:03:21;10.90;99.90
19665;DHT22;9980;51.020;7.772;2023-11-21T02:05:49;10.90;99.90
19665;DHT22;9980;51.020;7.772;2023-11-21T02:08:16;10.90;99.90
19665;DHT22;9980;51.020;7.772;2023-11-21T02:10:43;10.90;99.90
19665;DHT22;9980;51.020;7.772;2023-11-21T02:13:10;10.90;99.90
19665;DHT22;9980;51.020;7.772;2023-11-21T02:15:37;10.90;99.90
19665;DHT22;9980;51.020;7.772;2023-11-21T02:18:05;10.90;99.90
19665;DHT22;9980;51.020;7.772;2023-11-21T02:20:33;10.90;99.90
19665;DHT22;9980;51.020;7.772;2023-11-21T02:23:03;10.90;99.90
19665;DHT22;9980;51.020;7.772;2023-11-21T02:25:33;10.90;99.90
19665;DHT22;9980;51.020;7.772;2023-11-21T02:28:02;10.90;99.90
19665;DHT22;9980;51.020;7.772;2023-11-21T02:30:30;10.90;99.90
19665;DHT22;9980;51.020;7.772;2023-11-21T02:32:59;10.90;99.90
19665;DHT22;9980;51.020;7.772;2023-11-21T02:35:30;10.90;99.90
19665;DHT22;9980;51.020;7.772;2023-11-21T02:37:58;10.90;99.90
19665;DHT22;9980;51.020;7.772;2023-11-21T02:40:25;10.90;99.90
19665;DHT22;9980;51.020;7.772;2023-11-21T02:42:53;10.90;99.90
19665;DHT22;9980;51.020;7.772;2023-11-21T02:45:21;10.90;99.90
19665;DHT22;9980;51.020;7.772;2023-11-21T02:47:50;10.90;99.90
19665;DHT22;9980;51.020;7.772;2023-11-21T02:50:17;10.90;99.90
19665;DHT22;9980;51.020;7.772;2023-11-21T02:52:46;10.90;99.90
19665;DHT22;9980;51.020;7.772;2023-11-21T02:55:13;10.90;99.90
19665;DHT22;9980;51.020;7.772;2023-11-21T02:57:40;10.90;99.90
19665;DHT22;9980;51.020;7.772;2023-11-21T03:00:09;10.90;99.90
19665;DHT22;9980;51.020;7.772;2023-11-21T03:02:42;10.90;99.90
19665;DHT22;9980;51.020;7.772;2023-11-21T03:05:10;10.80;99.90
19665;DHT22;9980;51.020;7.772;2023-11-21T03:07:39;10.80;99.90
19665;DHT22;9980;51.020;7.772;2023-11-21T03:10:08;10.80;99.90
19665;DHT22;9980;51.020;7.772;2023-11-21T03:12:37;10.80;99.90
19665;DHT22;9980;51.020;7.772;2023-11-21T03:15:08;10.80;99.90
19665;DHT22;9980;51.020;7.772;2023-11-21T03:17:36;10.80;99.90
19665;DHT22;9980;51.020;7.772;2023-11-21T03:20:04;10.80;99.90
19665;DHT22;9980;51.020;7.772;2023-11-21T03:22:32;10.80;99.90
19665;DHT22;9980;51.020;7.772;2023-11-21T03:25:00;10.80;99.90
19665;DHT22;9980;51.020;7.772;2023-11-21T03:27:27;10.80;99.90
19665;DHT22;9980;51.020;7.772;2023-11-21T03:29:54;10.80;99.90
19665;DHT22;9980;51.020;7.772;2023-11-21T03:32:22;10.80;99.90
19665;DHT22;9980;51.020;7.772;2023-11-21T03:34:58;10.80;99.90
19665;DHT22;9980;51.020;7.772;2023-11-21T03:37:26;10.80;99.90
19665;DHT22;9980;51.020;7.772;2023-11-21T03:39:55;10.80;99.90
19665;DHT22;9980;51.020;7.772;2023-11-21T03:42:24;10.80;99.90
19665;DHT22;9980;51.020;7.772;2023-11-21T03:44:54;10.80;99.90
19665;DHT22;9980;51.020;7.772;2023-11-21T03:47:21;10.80;99.90
19665;DHT22;9980;51.020;7.772;2023-11-21T03:49:48;10.80;99.90
19665;DHT22;9980;51.020;7.772;2023-11-21T03:52:15;10.70;99.90
19665;DHT22;9980;51.020;7.772;2023-11-21T03:54:43;10.70;99.90
19665;DHT22;9980;51.020;7.772;2023-11-21T03:57:11;10.70;99.90
19665;DHT22;9980;51.020;7.772;2023-11-21T03:59:42;10.80;99.90
19665;DHT22;9980;51.020;7.772;2023-11-21T04:02:10;10.70;99.90
19665;DHT22;9980;51.020;7.772;2023-11-21T04:04:37;10.70;99.90
19665;DHT22;9980;51.020;7.772;2023-11-21T04:07:04;10.70;99.90
19665;DHT22;9980;51.020;7.772;2023-11-21T04:09:32;10.70;99.90
19665;DHT22;9980;51.020;7.772;2023-11-21T04:11:59;10.70;99.90
19665;DHT22;9980;51.020;7.772;2023-11-21T04:14:26;10.70;99.90
19665;DHT22;9980;51.020;7.772;2023-11-21T04:16:53;10.70;99.90
19665;DHT22;9980;51.020;7.772;2023-11-21T04:19:21;10.70;99.90
19665;DHT22;9980;51.020;7.772;2023-11-21T04:21:48;10.70;99.90
19665;DHT22;9980;51.020;7.772;2023-11-21T04:24:16;10.70;99.90
19665;DHT22;9980;51.020;7.772;2023-11-21T04:26:44;10.70;99.90
19665;DHT22;9980;51.020;7.772;2023-11-21T04:29:11;10.70;99.90
19665;DHT22;9980;51.020;7.772;2023-11-21T04:31:38;10.70;99.90
19665;DHT22;9980;51.020;7.772;2023-11-21T04:34:05;10.70;99.90
19665;DHT22;9980;51.020;7.772;2023-11-21T04:36:32;10.70;99.90
19665;DHT22;9980;51.020;7.772;2023-11-21T04:38:59;10.70;99.90
19665;DHT22;9980;51.020;7.772;2023-11-21T04:41:26;10.70;99.90
19665;DHT22;9980;51.020;7.772;2023-11-21T04:43:53;10.70;99.90
19665;DHT22;9980;51.020;7.772;2023-11-21T04:46:20;10.60;99.90
19665;DHT22;9980;51.020;7.772;2023-11-21T04:48:47;10.70;99.90
19665;DHT22;9980;51.020;7.772;2023-11-21T04:51:14;10.60;99.90
19665;DHT22;9980;51.020;7.772;2023-11-21T04:53:41;10.70;99.90
19665;DHT22;9980;51.020;7.772;2023-11-21T04:56:08;10.60;99.90
19665;DHT22;9980;51.020;7.772;2023-11-21T04:58:35;10.70;99.90
19665;DHT22;9980;51.020;7.772;2023-11-21T05:01:02;10.60;99.90
19665;DHT22;9980;51.020;7.772;2023-11-21T05:03:34;10.60;99.90
19665;DHT22;9980;51.020;7.772;2023-11-21T05:06:02;10.60;99.90
19665;DHT22;9980;51.020;7.772;2023-11-21T05:08:29;10.60;99.90
19665;DHT22;9980;51.020;7.772;2023-11-21T05:10:56;10.60;99.90
19665;DHT22;9980;51.020;7.772;2023-11-21T05:13:23;10.60;99.90
19665;DHT22;9980;51.020;7.772;2023-11-21T05:15:55;10.60;99.90
19665;DHT22;9980;51.020;7.772;2023-11-21T05:18:23;10.60;99.90
19665;DHT22;9980;51.020;7.772;2023-11-21T05:20:53;10.60;99.90
19665;DHT22;9980;51.020;7.772;2023-11-21T05:23:20;10.60;99.90
19665;DHT22;9980;51.020;7.772;2023-11-21T05:25:47;10.60;99.90
19665;DHT22;9980;51.020;7.772;2023-11-21T05:28:14;10.60;99.90
19665;DHT22;9980;51.020;7.772;2023-11-21T05:30:41;10.60;99.90
19665;DHT22;9980;51.020;7.772;2023-11-21T05:33:08;10.60;99.90
19665;DHT22;9980;51.020;7.772;2023-11-21T05:35:35;10.60;99.90
19665;DHT22;9980;51.020;7.772;2023-11-21T05:38:02;10.60;99.90
19665;DHT22;9980;51.020;7.772;2023-11-21T05:40:29;10.60;99.90
19665;DHT22;9980;51.020;7.772;2023-11-21T05:42:56;10.60;99.90
19665;DHT22;9980;51.020;7.772;2023-11-21T05:45:23;10.60;99.90
19665;DHT22;9980;51.020;7.772;2023-11-21T05:47:50;10.60;99.90
19665;DHT22;9980;51.020;7.772;2023-11-21T05:50:17;10.60;99.90
19665;DHT22;9980;51.020;7.772;2023-11-21T05:52:46;10.60;99.90
19665;DHT22;9980;51.020;7.772;2023-11-21T05:55:14;10.60;99.90
19665;DHT22;9980;51.020;7.772;2023-11-21T05:57:43;10.60;99.90
19665;DHT22;9980;51.020;7.772;2023-11-21T06:00:13;10.60;99.90
19665;DHT22;9980;51.020;7.772;2023-11-21T06:02:49;10.60;99.90
19665;DHT22;9980;51.020;7.772;2023-11-21T06:05:24;10.60;99.90
19665;DHT22;9980;51.020;7.772;2023-11-21T06:07:53;10.50;99.90
19665;DHT22;9980;51.020;7.772;2023-11-21T06:10:23;10.60;99.90
19665;DHT22;9980;51.020;7.772;2023-11-21T06:12:52;10.60;99.90
19665;DHT22;9980;51.020;7.772;2023-11-21T06:15:21;10.50;99.90
19665;DHT22;9980;51.020;7.772;2023-11-21T06:17:50;10.50;99.90
19665;DHT22;9980;51.020;7.772;2023-11-21T06:20:21;10.50;99.90
19665;DHT22;9980;51.020;7.772;2023-11-21T06:22:50;10.50;99.90
19665;DHT22;9980;51.020;7.772;2023-11-21T06:25:17;10.50;99.90
19665;DHT22;9980;51.020;7.772;2023-11-21T06:27:46;10.50;99.90
19665;DHT22;9980;51.020;7.772;2023-11-21T06:30:15;10.50;99.90
19665;DHT22;9980;51.020;7.772;2023-11-21T06:32:42;10.50;99.90
19665;DHT22;9980;51.020;7.772;2023-11-21T06:35:14;10.50;99.90
19665;DHT22;9980;51.020;7.772;2023-11-21T06:37:43;10.50;99.90
19665;DHT22;9980;51.020;7.772;2023-11-21T06:40:15;10.50;99.90
19665;DHT22;9980;51.020;7.772;2023-11-21T06:42:42;10.50;99.90
19665;DHT22;9980;51.020;7.772;2023-11-21T06:45:11;10.50;99.90
19665;DHT22;9980;51.020;7.772;2023-11-21T06:47:38;10.50;99.90
19665;DHT22;9980;51.020;7.772;2023-11-21T06:50:06;10.40;99.90
19665;DHT22;9980;51.020;7.772;2023-11-21T06:52:34;10.40;99.90
19665;DHT22;9980;51.020;7.772;2023-11-21T06:55:01;10.40;99.90
19665;DHT22;9980;51.020;7.772;2023-11-21T06:57:28;10.40;99.90
19665;DHT22;9980;51.020;7.772;2023-11-21T06:59:55;10.40;99.90
19665;DHT22;9980;51.020;7.772;2023-11-21T07:02:23;10.40;99.90
19665;DHT22;9980;51.020;7.772;2023-11-21T07:04:51;10.40;99.90
19665;DHT22;9980;51.020;7.772;2023-11-21T07:07:19;10.40;99.90
19665;DHT22;9980;51.020;7.772;2023-11-21T07:09:46;10.40;99.90
19665;DHT22;9980;51.020;7.772;2023-11-21T07:12:14;10.40;99.90
19665;DHT22;9980;51.020;7.772;2023-11-21T07:14:41;10.40;99.90
19665;DHT22;9980;51.020;7.772;2023-11-21T07:17:12;10.40;99.90
19665;DHT22;9980;51.020;7.772;2023-11-21T07:19:39;10.40;99.90
19665;DHT22;9980;51.020;7.772;2023-11-21T07:22:06;10.40;99.90
19665;DHT22;9980;51.020;7.772;2023-11-21T07:24:33;10.40;99.90
19665;DHT22;9980;51.020;7.772;2023-11-21T07:27:00;10.40;99.90
19665;DHT22;9980;51.020;7.772;2023-11-21T07:29:27;10.40;99.90
19665;DHT22;9980;51.020;7.772;2023-11-21T07:31:56;10.40;99.90
19665;DHT22;9980;51.020;7.772;2023-11-21T07:34:23;10.40;99.90
19665;DHT22;9980;51.020;7.772;2023-11-21T07:36:50;10.30;99.90
19665;DHT22;9980;51.020;7.772;2023-11-21T07:39:17;10.30;99.90
19665;DHT22;9980;51.020;7.772;2023-11-21T07:41:44;10.30;99.90
19665;DHT22;9980;51.020;7.772;2023-11-21T07:44:16;10.30;99.90
19665;DHT22;9980;51.020;7.772;2023-11-21T07:46:48;10.30;99.90
19665;DHT22;9980;51.020;7.772;2023-11-21T07:49:16;10.30;99.90
19665;DHT22;9980;51.020;7.772;2023-11-21T07:51:47;10.30;99.90
19665;DHT22;9980;51.020;7.772;2023-11-21T07:54:14;10.30;99.90
19665;DHT22;9980;51.020;7.772;2023-11-21T07:56:41;10.30;99.90
19665;DHT22;9980;51.020;7.772;2023-11-21T07:59:08;10.20;99.90
19665;DHT22;9980;51.020;7.772;2023-11-21T08:01:35;10.20;99.90
19665;DHT22;9980;51.020;7.772;2023-11-21T08:04:02;10.20;99.90
19665;DHT22;9980;51.020;7.772;2023-11-21T08:06:31;10.20;99.90
19665;DHT22;9980;51.020;7.772;2023-11-21T08:08:58;10.20;99.90
19665;DHT22;9980;51.020;7.772;2023-11-21T08:11:25;10.20;99.90
19665;DHT22;9980;51.020;7.772;2023-11-21T08:13:55;10.20;99.90
19665;DHT22;9980;51.020;7.772;2023-11-21T08:16:23;10.20;99.90
19665;DHT22;9980;51.020;7.772;2023-11-21T08:18:51;10.20;99.90
19665;DHT22;9980;51.020;7.772;2023-11-21T08:21:18;10.20;99.90
19665;DHT22;9980;51.020;7.772;2023-11-21T08:23:46;10.30;99.90
19665;DHT22;9980;51.020;7.772;2023-11-21T08:26:16;10.30;99.90
19665;DHT22;9980;51.020;7.772;2023-11-21T08:28:47;10.30;99.90
19665;DHT22;9980;51.020;7.772;2023-11-21T08:31:14;10.30;99.90
19665;DHT22;9980;51.020;7.772;2023-11-21T08:33:42;10.40;99.90
19665;DHT22;9980;51.020;7.772;2023-11-21T08:36:12;10.40;99.90
19665;DHT22;9980;51.020;7.772;2023-11-21T08:38:39;10.50;99.90
19665;DHT22;9980;51.020;7.772;2023-11-21T08:41:08;10.60;99.90
19665;DHT22;9980;51.020;7.772;2023-11-21T08:43:36;10.70;99.90
19665;DHT22;9980;51.020;7.772;2023-11-21T08:46:06;10.80;99.90
19665;DHT22;9980;51.020;7.772;2023-11-21T08:48:36;10.90;99.90
19665;DHT22;9980;51.020;7.772;2023-11-21T08:51:04;10.90;99.90
19665;DHT22;9980;51.020;7.772;2023-11-21T08:53:31;11.00;99.90
19665;DHT22;9980;51.020;7.772;2023-11-21T08:55:59;11.10;99.90
19665;DHT22;9980;51.020;7.772;2023-11-21T08:58:27;11.20;99.90
19665;DHT22;9980;51.020;7.772;2023-11-21T09:00:54;11.30;99.90
19665;DHT22;9980;51.020;7.772;2023-11-21T09:03:21;11.40;99.90
19665;DHT22;9980;51.020;7.772;2023-11-21T09:05:48;11.50;99.90
19665;DHT22;9980;51.020;7.772;2023-11-21T09:08:15;11.60;99.90
19665;DHT22;9980;51.020;7.772;2023-11-21T09:10:42;11.60;99.90
19665;DHT22;9980;51.020;7.772;2023-11-21T09:13:11;11.70;99.90
19665;DHT22;9980;51.020;7.772;2023-11-21T09:15:39;11.70;99.90
19665;DHT22;9980;51.020;7.772;2023-11-21T09:18:06;11.80;99.90
19665;DHT22;9980;51.020;7.772;2023-11-21T09:20:33;11.80;99.90
19665;DHT22;9980;51.020;7.772;2023-11-21T09:23:00;11.90;99.90
19665;DHT22;9980;51.020;7.772;2023-11-21T09:25:27;11.90;99.90
19665;DHT22;9980;51.020;7.772;2023-11-21T09:27:55;11.90;99.90
19665;DHT22;9980;51.020;7.772;2023-11-21T09:30:24;12.00;99.90
19665;DHT22;9980;51.020;7.772;2023-11-21T09:32:51;12.00;99.90
19665;DHT22;9980;51.020;7.772;2023-11-21T09:35:18;12.00;99.90
19665;DHT22;9980;51.020;7.772;2023-11-21T09:37:45;12.00;99.90
19665;DHT22;9980;51.020;7.772;2023-11-21T09:40:21;12.10;99.90
19665;DHT22;9980;51.020;7.772;2023-11-21T09:42:55;12.10;99.90
19665;DHT22;9980;51.020;7.772;2023-11-21T09:48:01;12.20;99.90
19665;DHT22;9980;51.020;7.772;2023-11-21T09:50:28;12.20;99.90
19665;DHT22;9980;51.020;7.772;2023-11-21T09:53:03;12.20;99.90
19665;DHT22;9980;51.020;7.772;2023-11-21T09:55:47;12.30;99.90
19665;DHT22;9980;51.020;7.772;2023-11-21T09:58:18;12.30;99.90
19665;DHT22;9980;51.020;7.772;2023-11-21T10:00:47;12.30;99.90
19665;DHT22;9980;51.020;7.772;2023-11-21T10:03:15;12.30;99.90
19665;DHT22;9980;51.020;7.772;2023-11-21T10:05:44;12.30;99.90
19665;DHT22;9980;51.020;7.772;2023-11-21T10:08:16;12.30;99.90
19665;DHT22;9980;51.020;7.772;2023-11-21T10:10:45;12.30;99.90
19665;DHT22;9980;51.020;7.772;2023-11-21T10:13:18;12.30;99.90
19665;DHT22;9980;51.020;7.772;2023-11-21T10:15:51;12.40;99.90
19665;DHT22;9980;51.020;7.772;2023-11-21T10:18:19;12.40;99.90
19665;DHT22;9980;51.020;7.772;2023-11-21T10:20:46;12.40;99.90
19665;DHT22;9980;51.020;7.772;2023-11-21T10:23:20;12.50;99.90
19665;DHT22;9980;51.020;7.772;2023-11-21T10:25:50;12.50;99.90
19665;DHT22;9980;51.020;7.772;2023-11-21T10:28:20;12.50;99.90
19665;DHT22;9980;51.020;7.772;2023-11-21T10:30:48;12.60;99.90
19665;DHT22;9980;51.020;7.772;2023-11-21T10:33:15;12.60;99.90
19665;DHT22;9980;51.020;7.772;2023-11-21T10:35:46;12.60;99.90
19665;DHT22;9980;51.020;7.772;2023-11-21T10:38:18;12.70;99.90
19665;DHT22;9980;51.020;7.772;2023-11-21T10:40:47;12.70;99.90
19665;DHT22;9980;51.020;7.772;2023-11-21T10:43:16;12.80;99.90
19665;DHT22;9980;51.020;7.772;2023-11-21T10:45:45;12.80;99.90
19665;DHT22;9980;51.020;7.772;2023-11-21T10:48:15;12.80;99.90
19665;DHT22;9980;51.020;7.772;2023-11-21T10:50:45;12.80;99.90
19665;DHT22;9980;51.020;7.772;2023-11-21T10:53:13;12.90;99.90
19665;DHT22;9980;51.020;7.772;2023-11-21T10:55:42;12.90;99.90
19665;DHT22;9980;51.020;7.772;2023-11-21T10:58:13;12.90;99.90
19665;DHT22;9980;51.020;7.772;2023-11-21T11:00:41;12.90;99.90
19665;DHT22;9980;51.020;7.772;2023-11-21T11:03:09;13.00;99.90
19665;DHT22;9980;51.020;7.772;2023-11-21T11:05:47;13.00;99.90
19665;DHT22;9980;51.020;7.772;2023-11-21T11:08:21;13.00;99.90
19665;DHT22;9980;51.020;7.772;2023-11-21T11:10:55;13.00;99.90
19665;DHT22;9980;51.020;7.772;2023-11-21T11:13:22;13.10;99.90
19665;DHT22;9980;51.020;7.772;2023-11-21T11:15:57;13.10;99.90
19665;DHT22;9980;51.020;7.772;2023-11-21T11:18:29;13.10;99.90
19665;DHT22;9980;51.020;7.772;2023-11-21T11:21:07;13.20;99.90
19665;DHT22;9980;51.020;7.772;2023-11-21T11:36:06;13.30;99.90
19665;DHT22;9980;51.020;7.772;2023-11-21T11:38:46;13.30;99.90
19665;DHT22;9980;51.020;7.772;2023-11-21T11:41:25;13.30;99.90
19665;DHT22;9980;51.020;7.772;2023-11-21T11:43:57;13.30;99.90
19665;DHT22;9980;51.020;7.772;2023-11-21T11:46:44;13.30;99.90
19665;DHT22;9980;51.020;7.772;2023-11-21T11:49:27;13.30;99.90
19665;DHT22;9980;51.020;7.772;2023-11-21T11:53:12;13.30;99.90
19665;DHT22;9980;51.020;7.772;2023-11-21T11:55:14;13.30;99.90
19665;DHT22;9980;51.020;7.772;2023-11-21T11:57:47;13.30;99.90
19665;DHT22;9980;51.020;7.772;2023-11-21T12:00:21;13.30;99.90
19665;DHT22;9980;51.020;7.772;2023-11-21T12:02:58;13.30;99.90
19665;DHT22;9980;51.020;7.772;2023-11-21T12:05:31;13.40;99.90
19665;DHT22;9980;51.020;7.772;2023-11-21T12:08:02;13.40;99.90
19665;DHT22;9980;51.020;7.772;2023-11-21T12:10:32;13.40;99.90
19665;DHT22;9980;51.020;7.772;2023-11-21T12:13:09;13.50;99.90
19665;DHT22;9980;51.020;7.772;2023-11-21T12:15:39;13.50;99.90
19665;DHT22;9980;51.020;7.772;2023-11-21T12:18:08;13.60;99.90
19665;DHT22;9980;51.020;7.772;2023-11-21T12:20:35;13.60;99.90
19665;DHT22;9980;51.020;7.772;2023-11-21T12:23:09;13.70;99.90
19665;DHT22;9980;51.020;7.772;2023-11-21T12:25:37;13.70;99.90
19665;DHT22;9980;51.020;7.772;2023-11-21T12:28:06;13.70;99.90
19665;DHT22;9980;51.020;7.772;2023-11-21T12:30:35;13.70;99.90
19665;DHT22;9980;51.020;7.772;2023-11-21T12:33:04;13.70;99.90
19665;DHT22;9980;51.020;7.772;2023-11-21T12:35:34;13.70;99.90
19665;DHT22;9980;51.020;7.772;2023-11-21T12:38:03;13.70;99.90
19665;DHT22;9980;51.020;7.772;2023-11-21T12:40:31;13.70;99.90
19665;DHT22;9980;51.020;7.772;2023-11-21T12:42:59;13.60;99.90
19665;DHT22;9980;51.020;7.772;2023-11-21T12:45:29;13.60;99.90
19665;DHT22;9980;51.020;7.772;2023-11-21T12:48:00;13.60;99.90
19665;DHT22;9980;51.020;7.772;2023-11-21T12:50:36;13.50;99.90
19665;DHT22;9980;51.020;7.772;2023-11-21T12:53:09;13.50;99.90
19665;DHT22;9980;51.020;7.772;2023-11-21T12:55:44;13.50;99.90
19665;DHT22;9980;51.020;7.772;2023-11-21T12:58:17;13.50;99.90
19665;DHT22;9980;51.020;7.772;2023-11-21T13:00:48;13.50;99.90
19665;DHT22;9980;51.020;7.772;2023-11-21T13:03:16;13.50;99.90
19665;DHT22;9980;51.020;7.772;2023-11-21T13:05:47;13.50;99.90
19665;DHT22;9980;51.020;7.772;2023-11-21T13:08:24;13.50;99.90
19665;DHT22;9980;51.020;7.772;2023-11-21T13:10:54;13.50;99.90
19665;DHT22;9980;51.020;7.772;2023-11-21T13:13:24;13.50;99.90
19665;DHT22;9980;51.020;7.772;2023-11-21T13:15:58;13.50;99.90
19665;DHT22;9980;51.020;7.772;2023-11-21T13:18:33;13.50;99.90
19665;DHT22;9980;51.020;7.772;2023-11-21T13:21:04;13.50;99.90
19665;DHT22;9980;51.020;7.772;2023-11-21T13:23:38;13.50;99.90
19665;DHT22;9980;51.020;7.772;2023-11-21T13:26:05;13.50;99.90
19665;DHT22;9980;51.020;7.772;2023-11-21T13:28:34;13.50;99.90
19665;DHT22;9980;51.020;7.772;2023-11-21T13:31:04;13.40;99.90
19665;DHT22;9980;51.020;7.772;2023-11-21T13:33:38;13.40;99.90
19665;DHT22;9980;51.020;7.772;2023-11-21T13:36:09;13.40;99.90
19665;DHT22;9980;51.020;7.772;2023-11-21T13:38:37;13.40;99.90
19665;DHT22;9980;51.020;7.772;2023-11-21T13:41:09;13.40;99.90
19665;DHT22;9980;51.020;7.772;2023-11-21T13:43:37;13.40;99.90
19665;DHT22;9980;51.020;7.772;2023-11-21T13:46:05;13.40;99.90
19665;DHT22;9980;51.020;7.772;2023-11-21T13:48:42;13.40;99.90
19665;DHT22;9980;51.020;7.772;2023-11-21T13:51:09;13.40;99.90
19665;DHT22;9980;51.020;7.772;2023-11-21T13:53:48;13.40;99.90
19665;DHT22;9980;51.020;7.772;2023-11-21T13:56:17;13.30;99.90
19665;DHT22;9980;51.020;7.772;2023-11-21T13:58:52;13.30;99.90
19665;DHT22;9980;51.020;7.772;2023-11-21T14:01:22;13.30;99.90
19665;DHT22;9980;51.020;7.772;2023-11-21T14:04:02;13.30;99.90
19665;DHT22;9980;51.020;7.772;2023-11-21T14:06:48;13.20;99.90
19665;DHT22;9980;51.020;7.772;2023-11-21T14:09:24;13.20;99.90
19665;DHT22;9980;51.020;7.772;2023-11-21T14:11:59;13.20;99.90
19665;DHT22;9980;51.020;7.772;2023-11-21T14:14:29;13.10;99.90
19665;DHT22;9980;51.020;7.772;2023-11-21T14:16:56;13.10;99.90
19665;DHT22;9980;51.020;7.772;2023-11-21T14:19:25;13.10;99.90
19665;DHT22;9980;51.020;7.772;2023-11-21T14:21:59;13.10;99.90
19665;DHT22;9980;51.020;7.772;2023-11-21T14:24:27;13.00;99.90
19665;DHT22;9980;51.020;7.772;2023-11-21T14:26:55;13.00;99.90
19665;DHT22;9980;51.020;7.772;2023-11-21T14:29:23;13.00;99.90
19665;DHT22;9980;51.020;7.772;2023-11-21T14:31:50;13.00;99.90
19665;DHT22;9980;51.020;7.772;2023-11-21T14:34:18;12.90;99.90
19665;DHT22;9980;51.020;7.772;2023-11-21T14:36:52;12.90;99.90
19665;DHT22;9980;51.020;7.772;2023-11-21T14:39:19;12.90;99.90
19665;DHT22;9980;51.020;7.772;2023-11-21T14:41:55;12.90;99.90
19665;DHT22;9980;51.020;7.772;2023-11-21T14:44:27;12.90;99.90
19665;DHT22;9980;51.020;7.772;2023-11-21T14:46:59;12.80;99.90
19665;DHT22;9980;51.020;7.772;2023-11-21T14:49:27;12.80;99.90
19665;DHT22;9980;51.020;7.772;2023-11-21T14:52:02;12.80;99.90
19665;DHT22;9980;51.020;7.772;2023-11-21T14:54:31;12.80;99.90
19665;DHT22;9980;51.020;7.772;2023-11-21T14:57:14;12.80;99.90
19665;DHT22;9980;51.020;7.772;2023-11-21T14:59:47;12.70;99.90
19665;DHT22;9980;51.020;7.772;2023-11-21T15:02:19;12.70;99.90
19665;DHT22;9980;51.020;7.772;2023-11-21T15:04:49;12.70;99.90
19665;DHT22;9980;51.020;7.772;2023-11-21T15:07:27;12.60;99.90
19665;DHT22;9980;51.020;7.772;2023-11-21T15:09:56;12.60;99.90
19665;DHT22;9980;51.020;7.772;2023-11-21T15:12:23;12.60;99.90
19665;DHT22;9980;51.020;7.772;2023-11-21T15:14:53;12.50;99.90
19665;DHT22;9980;51.020;7.772;2023-11-21T15:17:22;12.50;99.90
19665;DHT22;9980;51.020;7.772;2023-11-21T15:19:53;12.50;99.90
19665;DHT22;9980;51.020;7.772;2023-11-21T15:22:21;12.40;99.90
19665;DHT22;9980;51.020;7.772;2023-11-21T15:24:49;12.40;99.90
19665;DHT22;9980;51.020;7.772;2023-11-21T15:27:17;12.40;99.90
19665;DHT22;9980;51.020;7.772;2023-11-21T15:29:44;12.30;99.90
19665;DHT22;9980;51.020;7.772;2023-11-21T15:32:12;12.30;99.90
19665;DHT22;9980;51.020;7.772;2023-11-21T15:34:40;12.30;99.90
19665;DHT22;9980;51.020;7.772;2023-11-21T15:37:07;12.30;99.90
19665;DHT22;9980;51.020;7.772;2023-11-21T15:39:39;12.30;99.90
19665;DHT22;9980;51.020;7.772;2023-11-21T15:42:06;12.20;99.90
19665;DHT22;9980;51.020;7.772;2023-11-21T15:44:34;12.20;99.90
19665;DHT22;9980;51.020;7.772;2023-11-21T15:47:01;12.20;99.90
19665;DHT22;9980;51.020;7.772;2023-11-21T15:49:34;12.20;99.90
19665;DHT22;9980;51.020;7.772;2023-11-21T15:52:05;12.20;99.90
19665;DHT22;9980;51.020;7.772;2023-11-21T15:54:34;12.20;99.90
19665;DHT22;9980;51.020;7.772;2023-11-21T15:57:05;12.20;99.90
19665;DHT22;9980;51.020;7.772;2023-11-21T15:59:33;12.20;99.90
19665;DHT22;9980;51.020;7.772;2023-11-21T16:02:01;12.20;99.90
19665;DHT22;9980;51.020;7.772;2023-11-21T16:04:32;12.20;99.90
19665;DHT22;9980;51.020;7.772;2023-11-21T16:06:59;12.10;99.90
19665;DHT22;9980;51.020;7.772;2023-11-21T16:09:27;12.10;99.90
19665;DHT22;9980;51.020;7.772;2023-11-21T16:12:02;12.10;99.90